Latest Weather Observations for Yulara

IDD60801

Issued at 8:35 am CST Tuesday 2 September 2014 (issued every 30 minutes, with the page automatically refreshed every 10 minutes)

About weather observations | Map of weather stations | Latest weather observations for NT | Other Formats
Station Details ID: 015635 Name: YULARA AIRPORT Lat: -25.19 Lon: 130.97 Height: 492.0 m
Data from the previous 72 hours. | See also: Recent months at Yulara
Date/Time
CST
Temp
°C
App
Temp
°C
Dew
Point
Rel
Hum
%
Delta-T
°C
Wind Press
QNH
hPa
Press
MSL
hPa
Rain
since 9 am
mm
Dir
 
Spd
km/h
Gust
km/h
Spd
kts
Gust
kts
02/08:30am 13.9 7.0 2.8 47 5.0 ESE 28 39 15 21 1026.7 1025.0 0.0
02/08:00am 13.1 7.4 2.9 50 4.6 ESE 22 33 12 18 1026.4 1024.7 0.0
02/07:30am 10.5 7.3 2.8 59 3.4 ESE 9 13 5 7 1025.9 1024.2 0.0
02/07:00am 9.4 6.1 2.7 63 2.9 SE 9 11 5 6 1025.5 1023.7 0.0
02/06:30am 9.9 6.7 3.0 62 3.0 ESE 9 11 5 6 1024.8 1023.1 0.0
02/06:00am 9.9 6.7 3.0 62 3.0 SE 9 11 5 6 1024.4 1022.7 0.0
02/05:30am 10.9 7.7 3.2 59 3.4 ESE 9 13 5 7 1024.2 1022.5 0.0
02/05:00am 10.7 7.5 3.3 60 3.3 SE 9 11 5 6 1024.1 1022.4 0.0
02/04:30am 10.9 7.7 3.2 59 3.4 SE 9 13 5 7 1023.7 1021.9 0.0
02/04:00am 11.0 8.3 3.5 60 3.4 SSE 7 11 4 6 1023.7 1021.9 0.0
02/03:30am 12.1 9.2 4.6 60 3.5 SSE 9 13 5 7 1023.7 1021.9 0.0
02/03:00am 12.7 9.8 4.4 57 3.9 S 9 11 5 6 1023.5 1021.7 0.0
02/02:30am 14.2 10.9 4.5 52 4.6 SSE 11 15 6 8 1023.3 1021.5 0.0
02/02:00am 15.3 11.4 5.2 51 4.9 SSE 15 24 8 13 1022.8 1021.1 0.0
02/01:30am 15.8 12.1 6.3 53 4.7 SSE 15 20 8 11 1022.8 1021.1 0.0
02/01:00am 16.7 13.1 6.8 52 5.0 SSE 15 19 8 10 1022.9 1021.2 0.0
02/12:30am 16.8 13.6 6.9 52 5.0 SSE 13 17 7 9 1022.7 1021.0 0.0
02/12:00am 18.1 14.2 7.2 49 5.6 SSE 17 22 9 12 1022.4 1020.7 0.0
 
Date/Time
CST
Temp
°C
App
Temp
°C
Dew
Point
Rel
Hum
%
Delta-T
°C
Wind Press
QNH
hPa
Press
MSL
hPa
Rain
since 9 am
mm
Dir
 
Spd
km/h
Gust
km/h
Spd
kts
Gust
kts
01/11:30pm 18.8 14.6 7.3 47 5.9 SSE 19 26 10 14 1022.6 1020.9 0.0
01/11:00pm 19.5 15.1 7.6 46 6.2 SSE 20 26 11 14 1022.4 1020.7 0.0
01/10:30pm 20.2 15.5 7.6 44 6.6 SSE 22 35 12 19 1022.2 1020.5 0.0
01/10:00pm 19.8 16.4 7.5 45 6.4 S 15 20 8 11 1022.0 1020.3 0.0
01/09:30pm 20.7 15.9 7.3 42 7.0 S 22 30 12 16 1021.7 1019.9 0.0
01/09:00pm 21.3 16.9 7.5 41 7.3 S 20 30 11 16 1021.4 1019.6 0.0
01/08:30pm 22.2 16.9 6.8 37 8.1 S 24 33 13 18 1020.7 1019.0 0.0
01/08:00pm 22.8 18.2 5.7 33 8.8 S 19 28 10 15 1020.2 1018.5 0.0
01/07:30pm 23.5 19.1 4.9 30 9.5 S 17 24 9 13 1019.6 1017.8 0.0
01/07:00pm 24.3 19.7 3.6 26 10.4 S 17 22 9 12 1019.1 1017.3 0.0
01/06:30pm 26.1 20.8 2.1 21 11.8 S 19 26 10 14 1018.6 1016.9 0.0
01/06:00pm 27.5 22.1 1.1 18 12.9 S 19 28 10 15 1018.1 1016.3 0.0
01/05:30pm 28.1 22.6 0.8 17 13.3 SSW 19 30 10 16 1017.9 1016.1 0.0
01/05:00pm 28.6 22.0 -0.5 15 14.0 SW 24 35 13 19 1017.5 1015.7 0.0
01/04:30pm 29.0 23.0 -1.2 14 14.3 SW 20 35 11 19 1017.4 1015.6 0.0
01/04:00pm 29.5 23.3 -2.9 12 15.0 SW 20 30 11 16 1017.2 1015.4 0.0
01/03:30pm 29.7 22.8 -2.7 12 15.1 SSW 24 32 13 17 1017.4 1015.6 0.0
01/03:00pm 29.9 24.5 -1.5 13 14.9 WSW 17 30 9 16 1017.3 1015.5 0.0
01/02:30pm 29.0 22.8 -0.2 15 14.1 SSW 22 28 12 15 1017.3 1015.5 0.0
01/02:00pm 28.3 22.5 0.1 16 13.6 S 20 24 11 13 1017.7 1015.9 0.0
01/01:30pm 28.4 24.4 0.2 16 13.7 SW 11 22 6 12 1017.9 1016.1 0.0
01/01:00pm 28.3 23.4 -0.8 15 13.9 SSW 15 24 8 13 1018.2 1016.4 0.0
01/12:30pm 27.4 22.2 -2.4 14 13.7 S 15 22 8 12 1018.7 1017.0 0.0
01/12:00pm 27.3 22.1 -2.5 14 13.6 S 15 24 8 13 1019.0 1017.2 0.0
01/11:30am 26.1 21.2 -3.5 14 13.2 SSE 13 20 7 11 1019.2 1017.4 0.0
01/11:00am 25.4 19.3 -4.0 14 12.9 S 19 28 10 15 1019.6 1017.8 0.0
01/10:30am 24.4 19.0 -4.8 14 12.5 SSW 15 24 8 13 1019.4 1017.6 0.0
01/10:00am 22.9 17.7 -6.0 14 12.0 S 13 17 7 9 1019.3 1017.5 0.0
01/09:30am 21.6 15.3 -6.1 15 11.3 S 19 22 10 12 1019.0 1017.2 0.0
01/09:00am 20.9 15.0 -5.8 16 10.9 SSW 17 22 9 12 1019.0 1018.2 0.0
01/08:30am 19.1 14.3 -5.7 18 9.9 SW 11 20 6 11 1018.7 1018.0 0.0
01/08:00am 14.2 10.8 -5.0 26 7.4 S 4 11 2 6 1018.4 1017.7 0.0
01/07:54am 13.3 9.4 -4.8 28 7.0 S 7 17 4 9 1018.3 1017.6 0.0
01/07:37am 9.4 6.8 -4.9 36 5.2 CALM 0 0 0 0 1017.8 1017.0 0.0
01/07:30am 8.7 6.0 -5.5 36 5.1 CALM 0 0 0 0 1017.8 1017.0 0.0
01/07:00am 10.2 6.8 -5.3 33 5.7 SSW 4 13 2 7 1017.3 1016.5 0.0
01/06:30am 10.0 7.4 -5.1 34 5.5 CALM 0 0 0 0 1016.4 1015.6 0.0
01/06:00am 9.6 6.9 -5.5 34 5.5 CALM 0 0 0 0 1016.1 1015.3 0.0
01/05:30am 9.3 5.5 -5.7 34 5.4 NNW 6 11 3 6 1015.9 1015.1 0.0
01/05:00am 6.3 3.7 -5.3 43 4.1 CALM 0 0 0 0 1015.8 1015.0 0.0
01/04:30am 7.2 4.5 -5.5 40 4.5 CALM 0 0 0 0 1015.6 1014.8 0.0
01/04:00am 7.9 5.2 -5.5 38 4.8 CALM 0 0 0 0 1015.6 1014.8 0.0
01/03:30am 9.1 6.0 -6.3 33 5.4 WNW 2 7 1 4 1015.8 1015.0 0.0
01/03:00am 10.2 6.4 -5.7 32 5.8 SSW 6 11 3 6 1016.0 1015.2 0.0
01/02:30am 11.0 6.6 -5.5 31 6.1 S 9 11 5 6 1016.1 1015.3 0.0
01/02:00am 11.3 6.2 -5.6 30 6.2 S 13 17 7 9 1016.3 1015.5 0.0
01/01:30am 9.5 6.8 -5.6 34 5.4 CALM 0 0 0 0 1016.2 1015.4 0.0
01/01:00am 11.5 8.4 -6.3 28 6.5 NW 2 6 1 3 1016.3 1015.5 0.0
01/12:30am 12.8 9.0 -5.2 28 6.8 NW 6 7 3 4 1016.4 1015.6 0.0
01/12:00am 12.9 9.0 -4.7 29 6.7 NW 7 7 4 4 1016.5 1015.8 0.0
 
Date/Time
CST
Temp
°C
App
Temp
°C
Dew
Point
Rel
Hum
%
Delta-T
°C
Wind Press
QNH
hPa
Press
MSL
hPa
Rain
since 9 am
mm
Dir
 
Spd
km/h
Gust
km/h
Spd
kts
Gust
kts
31/11:30pm 10.7 6.7 -5.7 31 6.0 NW 7 9 4 5 1016.6 1015.9 0.0
31/11:00pm 11.1 8.4 -5.8 30 6.2 CALM 0 0 0 0 1016.6 1015.9 0.0
31/10:30pm 11.7 8.9 -6.6 27 6.6 CALM 0 0 0 0 1016.8 1016.0 0.0
31/10:00pm 12.1 9.4 -6.3 27 6.7 CALM 0 0 0 0 1016.6 1015.9 0.0
31/09:30pm 13.7 10.9 -6.5 24 7.5 CALM 0 0 0 0 1016.5 1015.8 0.0
31/09:00pm 15.9 11.8 -7.0 20 8.6 NNW 7 7 4 4 1016.4 1015.6 0.0
31/08:30pm 18.7 14.6 -6.8 17 9.9 N 7 9 4 5 1016.2 1015.4 0.0
31/08:00pm 19.5 15.0 -7.0 16 10.4 N 9 9 5 5 1016.0 1015.2 0.0
31/07:30pm 20.6 16.4 -7.8 14 11.1 N 7 9 4 5 1015.9 1015.1 0.0
31/07:00pm 23.0 18.4 -7.9 12 12.3 N 9 11 5 6 1015.7 1014.9 0.0
31/06:30pm 25.8 20.7 -9.4 9 14.0 NNW 11 13 6 7 1015.5 1014.7 0.0
31/06:00pm 28.6 23.2 -8.8 8 15.5 NW 13 19 7 10 1015.4 1014.6 0.0
31/05:30pm 29.3 23.2 -8.3 8 15.8 WNW 17 24 9 13 1015.3 1014.5 0.0
31/05:00pm 29.8 25.2 -8.0 8 16.1 NNW 9 26 5 14 1015.2 1014.4 0.0
31/04:30pm 29.4 24.0 -8.2 8 15.9 WSW 13 20 7 11 1015.2 1014.4 0.0
31/04:00pm 29.8 24.4 -8.0 8 16.1 N 13 22 7 12 1015.2 1014.4 0.0
31/03:30pm 29.2 24.9 -8.4 8 15.8 WNW 7 19 4 10 1015.5 1014.7 0.0
31/03:00pm 29.6 24.6 -8.1 8 16.0 NNW 11 22 6 12 1015.7 1014.9 0.0
31/02:30pm 29.0 23.2 -8.5 8 15.7 WNW 15 28 8 15 1016.1 1015.3 0.0
31/02:00pm 28.4 23.0 -9.0 8 15.4 W 13 26 7 14 1016.5 1015.8 0.0
31/01:30pm 28.3 22.2 -7.6 9 15.1 N 17 26 9 14 1017.0 1016.2 0.0
31/01:00pm 27.9 22.9 -7.9 9 15.0 NW 11 22 6 12 1017.6 1016.8 0.0
31/12:30pm 27.7 22.0 -8.0 9 14.9 NW 15 20 8 11 1018.2 1017.4 0.0
31/12:00pm 26.9 20.5 -7.3 10 14.3 WNW 19 24 10 13 1018.7 1018.0 0.0
31/11:30am 26.2 20.7 -5.4 12 13.6 NNW 15 24 8 13 1019.1 1018.3 0.0
31/11:00am 24.4 19.0 -4.8 14 12.5 NW 15 20 8 11 1019.4 1018.6 0.0
31/10:30am 23.0 18.0 -4.1 16 11.6 NNW 13 20 7 11 1019.7 1018.9 0.0
31/10:00am 21.7 17.4 -4.4 17 11.0 N 9 13 5 7 1019.8 1019.0 0.0
31/09:30am 19.3 16.8 -4.2 20 9.7 CALM 0 6 0 3 1020.0 1019.3 0.0
31/09:00am 16.7 13.9 -3.4 25 8.2 SE 2 6 1 3 1020.0 1019.3 0.0
31/08:30am 13.2 10.8 -3.5 31 6.6 CALM 0 0 0 0 1019.9 1019.1 0.0
31/08:00am 9.3 5.7 -3.9 39 5.0 S 6 7 3 4 1019.7 1018.9 0.0
31/07:30am 6.2 2.3 -4.5 46 3.8 S 7 9 4 5 1019.5 1018.7 0.0
31/07:00am 5.4 1.4 -5.6 45 3.8 S 7 11 4 6 1019.2 1018.4 0.0
31/06:30am 6.1 1.8 -5.2 44 3.9 S 9 13 5 7 1018.8 1018.1 0.0
31/06:00am 5.9 1.6 -5.1 45 3.8 S 9 13 5 7 1018.6 1017.9 0.0
31/05:30am 7.0 3.1 -5.0 42 4.3 S 7 13 4 7 1018.4 1017.7 0.0
31/05:00am 7.3 2.6 -5.1 41 4.4 S 11 15 6 8 1018.2 1017.4 0.0
31/04:30am 6.1 2.8 -4.6 46 3.8 S 4 9 2 5 1018.1 1017.3 0.0
31/04:00am 6.3 3.7 -4.7 45 3.9 CALM 0 0 0 0 1017.9 1017.1 0.0
31/03:30am 5.9 3.3 -4.5 47 3.7 CALM 0 0 0 0 1017.9 1017.1 0.0
31/03:00am 5.5 2.9 -5.2 46 3.7 CALM 0 0 0 0 1018.1 1017.3 0.0
31/02:30am 6.3 3.7 -4.7 45 3.9 CALM 0 0 0 0 1018.3 1017.6 0.0
31/02:00am 6.7 4.1 -5.0 43 4.1 CALM 0 0 0 0 1018.5 1017.8 0.0
31/01:30am 6.9 4.3 -4.8 43 4.2 CALM 0 0 0 0 1018.6 1017.9 0.0
31/01:00am 8.3 5.7 -4.5 40 4.7 CALM 0 0 0 0 1019.1 1018.3 0.0
31/12:30am 8.6 6.1 -4.2 40 4.7 CALM 0 0 0 0 1019.1 1018.3 0.0
31/12:00am 9.4 6.8 -4.5 37 5.1 CALM 0 0 0 0 1019.3 1018.5 0.0
 
Date/Time
CST
Temp
°C
App
Temp
°C
Dew
Point
Rel
Hum
%
Delta-T
°C
Wind Press
QNH
hPa
Press
MSL
hPa
Rain
since 9 am
mm
Dir
 
Spd
km/h
Gust
km/h
Spd
kts
Gust
kts
30/11:30pm 9.8 7.2 -4.5 36 5.3 CALM 0 7 0 4 1019.4 1018.6 0.0
30/11:00pm 10.4 6.7 -4.4 35 5.6 ESE 6 7 3 4 1019.5 1018.7 0.0
30/10:30pm 10.7 7.8 -4.5 34 5.7 SSE 2 7 1 4 1019.7 1018.9 0.0
30/10:00pm 10.7 7.0 -4.9 33 5.8 SSE 6 6 3 3 1019.7 1018.9 0.0
30/09:30pm 12.7 8.4 -4.4 30 6.6 SSW 9 9 5 5 1019.8 1019.0 0.0
30/09:00pm 13.2 10.7 -4.0 30 6.7 CALM 0 0 0 0 1019.4 1018.6 0.0
30/08:30pm 17.1 13.4 -4.2 23 8.6 N 6 11 3 6 1019.3 1018.5 0.0
30/08:00pm 15.7 13.1 -4.8 24 8.1 CALM 0 0 0 0 1018.8 1018.1 0.0
30/07:30pm 17.8 15.2 -4.8 21 9.1 CALM 0 0 0 0 1018.7 1018.0 0.0
30/07:00pm 21.0 18.4 -5.0 17 10.8 CALM 0 0 0 0 1018.5 1017.8 0.0
30/06:30pm 25.4 21.9 -6.0 12 13.3 ESE 4 7 2 4 1018.1 1017.3 0.0
30/06:00pm 26.1 22.6 -6.6 11 13.8 ESE 4 11 2 6 1018.1 1017.3 0.0
30/05:30pm 26.7 22.6 -6.2 11 14.0 E 7 15 4 8 1018.0 1017.2 0.0
30/05:00pm 26.9 22.1 -6.0 11 14.1 N 11 20 6 11 1017.7 1016.9 0.0
30/04:30pm 27.3 23.9 -5.7 11 14.3 NW 4 17 2 9 1017.7 1016.9 0.0
30/04:00pm 26.9 23.1 -6.0 11 14.1 NE 6 11 3 6 1017.9 1017.1 0.0
30/03:30pm 27.2 22.8 -5.8 11 14.2 NE 9 15 5 8 1017.9 1017.1 0.0
30/03:00pm 26.8 22.1 -4.9 12 13.8 WNW 11 19 6 10 1018.2 1017.4 0.0
30/02:30pm 26.8 23.6 -3.9 13 13.7 E 4 13 2 7 1018.4 1017.7 0.0
30/02:00pm 25.8 21.9 -4.7 13 13.3 SE 7 15 4 8 1019.2 1018.4 0.0
30/01:30pm 26.4 21.9 -3.2 14 13.3 NNE 11 20 6 11 1019.8 1019.0 0.0
30/01:00pm 25.9 21.8 -2.7 15 12.9 N 9 17 5 9 1020.3 1019.6 0.0
30/12:30pm 26.0 21.7 -1.7 16 12.7 N 11 22 6 12 1020.8 1020.1 0.0
30/12:00pm 24.9 21.2 -2.6 16 12.3 NNE 7 13 4 7 1021.5 1020.7 0.0
30/11:30am 23.5 18.7 -2.2 18 11.5 N 13 20 7 11 1022.1 1021.4 0.0
30/11:00am 22.2 17.1 -1.8 20 10.7 NE 15 22 8 12 1022.7 1022.0 0.0
30/10:30am 20.9 16.7 -1.0 23 9.8 NE 11 19 6 10 1023.3 1022.5 0.0
30/10:00am 19.9 15.7 -1.2 24 9.3 ENE 11 20 6 11 1023.3 1022.5 0.0
30/09:30am 18.0 13.4 -1.3 27 8.3 E 13 17 7 9 1023.3 1022.5 0.0
30/09:00am 16.0 12.2 -1.1 31 7.3 E 9 13 5 7 1023.5 1022.7 0.0

Other Formats:

Comma delimited format used in spreadsheet applications
http://www.bom.gov.au/fwo/IDD60801/IDD60801.94462.axf

JavaScript Object Notation format (JSON) in row-major order
http://www.bom.gov.au/fwo/IDD60801/IDD60801.94462.json